sensor_id;sensor_type;location;lat;lon;timestamp;P1;durP1;ratioP1;P2;durP2;ratioP2
7515;SDS011;3799;47.184;8.538;2024-02-04T00:00:24;8.88;;;4.53;;
7515;SDS011;3799;47.184;8.538;2024-02-04T00:02:52;7.57;;;3.90;;
7515;SDS011;3799;47.184;8.538;2024-02-04T00:05:22;7.35;;;3.90;;
7515;SDS011;3799;47.184;8.538;2024-02-04T00:07:50;7.55;;;4.18;;
7515;SDS011;3799;47.184;8.538;2024-02-04T00:10:17;12.52;;;4.78;;
7515;SDS011;3799;47.184;8.538;2024-02-04T00:12:45;9.93;;;4.82;;
7515;SDS011;3799;47.184;8.538;2024-02-04T00:15:13;9.85;;;4.18;;
7515;SDS011;3799;47.184;8.538;2024-02-04T00:17:40;8.80;;;3.80;;
7515;SDS011;3799;47.184;8.538;2024-02-04T00:20:13;8.77;;;4.40;;
7515;SDS011;3799;47.184;8.538;2024-02-04T00:22:43;7.53;;;4.00;;
7515;SDS011;3799;47.184;8.538;2024-02-04T00:25:19;9.27;;;4.82;;
7515;SDS011;3799;47.184;8.538;2024-02-04T00:27:47;8.88;;;3.63;;
7515;SDS011;3799;47.184;8.538;2024-02-04T00:30:14;7.63;;;4.00;;
7515;SDS011;3799;47.184;8.538;2024-02-04T00:32:42;6.88;;;3.70;;
7515;SDS011;3799;47.184;8.538;2024-02-04T00:35:14;10.35;;;4.72;;
7515;SDS011;3799;47.184;8.538;2024-02-04T00:37:42;7.97;;;4.03;;
7515;SDS011;3799;47.184;8.538;2024-02-04T00:40:14;7.28;;;4.43;;
7515;SDS011;3799;47.184;8.538;2024-02-04T00:42:43;6.90;;;3.83;;
7515;SDS011;3799;47.184;8.538;2024-02-04T00:45:10;8.48;;;3.80;;
7515;SDS011;3799;47.184;8.538;2024-02-04T00:47:41;7.10;;;3.67;;
7515;SDS011;3799;47.184;8.538;2024-02-04T00:50:16;9.43;;;3.85;;
7515;SDS011;3799;47.184;8.538;2024-02-04T00:52:43;8.80;;;4.47;;
7515;SDS011;3799;47.184;8.538;2024-02-04T00:55:11;9.95;;;4.38;;
7515;SDS011;3799;47.184;8.538;2024-02-04T00:57:38;9.23;;;3.75;;
7515;SDS011;3799;47.184;8.538;2024-02-04T01:00:06;10.20;;;4.10;;
7515;SDS011;3799;47.184;8.538;2024-02-04T01:02:40;5.47;;;3.25;;
7515;SDS011;3799;47.184;8.538;2024-02-04T01:05:07;6.57;;;3.10;;
7515;SDS011;3799;47.184;8.538;2024-02-04T01:07:35;7.20;;;3.92;;
7515;SDS011;3799;47.184;8.538;2024-02-04T01:10:05;7.05;;;3.70;;
7515;SDS011;3799;47.184;8.538;2024-02-04T01:12:36;5.15;;;3.00;;
7515;SDS011;3799;47.184;8.538;2024-02-04T01:15:10;8.18;;;3.75;;
7515;SDS011;3799;47.184;8.538;2024-02-04T01:17:37;7.40;;;3.08;;
7515;SDS011;3799;47.184;8.538;2024-02-04T01:20:05;8.30;;;4.05;;
7515;SDS011;3799;47.184;8.538;2024-02-04T01:22:34;6.80;;;2.58;;
7515;SDS011;3799;47.184;8.538;2024-02-04T01:25:08;8.35;;;3.35;;
7515;SDS011;3799;47.184;8.538;2024-02-04T01:27:40;8.65;;;3.50;;
7515;SDS011;3799;47.184;8.538;2024-02-04T01:30:11;5.38;;;3.05;;
7515;SDS011;3799;47.184;8.538;2024-02-04T01:32:41;6.32;;;3.75;;
7515;SDS011;3799;47.184;8.538;2024-02-04T01:35:15;5.90;;;3.20;;
7515;SDS011;3799;47.184;8.538;2024-02-04T01:37:42;7.25;;;3.63;;
7515;SDS011;3799;47.184;8.538;2024-02-04T01:40:11;7.88;;;3.60;;
7515;SDS011;3799;47.184;8.538;2024-02-04T01:43:00;6.25;;;3.80;;
7515;SDS011;3799;47.184;8.538;2024-02-04T01:45:30;9.90;;;4.28;;
7515;SDS011;3799;47.184;8.538;2024-02-04T01:48:01;8.57;;;4.03;;
7515;SDS011;3799;47.184;8.538;2024-02-04T01:50:30;7.00;;;3.05;;
7515;SDS011;3799;47.184;8.538;2024-02-04T01:53:01;8.57;;;3.83;;
7515;SDS011;3799;47.184;8.538;2024-02-04T01:55:30;6.03;;;3.25;;
7515;SDS011;3799;47.184;8.538;2024-02-04T01:58:10;8.68;;;3.92;;
7515;SDS011;3799;47.184;8.538;2024-02-04T02:03:20;5.90;;;3.08;;
7515;SDS011;3799;47.184;8.538;2024-02-04T02:05:51;9.57;;;4.93;;
7515;SDS011;3799;47.184;8.538;2024-02-04T02:08:20;10.20;;;4.60;;
7515;SDS011;3799;47.184;8.538;2024-02-04T02:10:51;7.10;;;3.95;;
7515;SDS011;3799;47.184;8.538;2024-02-04T02:13:29;10.38;;;4.80;;
7515;SDS011;3799;47.184;8.538;2024-02-04T02:16:04;6.38;;;4.07;;
7515;SDS011;3799;47.184;8.538;2024-02-04T02:18:48;10.10;;;4.22;;
7515;SDS011;3799;47.184;8.538;2024-02-04T02:26:43;9.35;;;3.97;;
7515;SDS011;3799;47.184;8.538;2024-02-04T02:29:12;8.45;;;4.28;;
7515;SDS011;3799;47.184;8.538;2024-02-04T02:31:40;10.52;;;4.60;;
7515;SDS011;3799;47.184;8.538;2024-02-04T02:34:15;11.90;;;4.97;;
7515;SDS011;3799;47.184;8.538;2024-02-04T02:36:55;13.18;;;4.35;;
7515;SDS011;3799;47.184;8.538;2024-02-04T02:39:54;9.07;;;4.30;;
7515;SDS011;3799;47.184;8.538;2024-02-04T02:42:25;10.07;;;4.00;;
7515;SDS011;3799;47.184;8.538;2024-02-04T02:44:54;7.93;;;5.22;;
7515;SDS011;3799;47.184;8.538;2024-02-04T02:47:23;10.30;;;4.30;;
7515;SDS011;3799;47.184;8.538;2024-02-04T02:49:55;6.57;;;3.95;;
7515;SDS011;3799;47.184;8.538;2024-02-04T02:52:29;9.85;;;4.95;;
7515;SDS011;3799;47.184;8.538;2024-02-04T02:55:02;12.18;;;4.47;;
7515;SDS011;3799;47.184;8.538;2024-02-04T02:57:36;6.93;;;3.15;;
7515;SDS011;3799;47.184;8.538;2024-02-04T03:00:10;6.55;;;3.53;;
7515;SDS011;3799;47.184;8.538;2024-02-04T03:02:38;8.77;;;4.05;;
7515;SDS011;3799;47.184;8.538;2024-02-04T03:05:08;7.97;;;3.92;;
7515;SDS011;3799;47.184;8.538;2024-02-04T03:07:39;10.05;;;5.20;;
7515;SDS011;3799;47.184;8.538;2024-02-04T03:10:07;9.43;;;4.45;;
7515;SDS011;3799;47.184;8.538;2024-02-04T03:12:43;9.02;;;4.60;;
7515;SDS011;3799;47.184;8.538;2024-02-04T03:15:13;8.65;;;4.90;;
7515;SDS011;3799;47.184;8.538;2024-02-04T03:17:42;8.35;;;4.70;;
7515;SDS011;3799;47.184;8.538;2024-02-04T03:20:11;9.00;;;4.35;;
7515;SDS011;3799;47.184;8.538;2024-02-04T03:22:39;8.35;;;4.63;;
7515;SDS011;3799;47.184;8.538;2024-02-04T03:25:13;10.90;;;4.32;;
7515;SDS011;3799;47.184;8.538;2024-02-04T03:27:42;8.70;;;4.07;;
7515;SDS011;3799;47.184;8.538;2024-02-04T03:30:10;9.40;;;4.07;;
7515;SDS011;3799;47.184;8.538;2024-02-04T03:32:46;12.38;;;6.57;;
7515;SDS011;3799;47.184;8.538;2024-02-04T03:35:39;10.52;;;5.03;;
7515;SDS011;3799;47.184;8.538;2024-02-04T03:38:16;8.88;;;4.80;;
7515;SDS011;3799;47.184;8.538;2024-02-04T03:40:50;8.85;;;4.05;;
7515;SDS011;3799;47.184;8.538;2024-02-04T03:43:35;9.05;;;4.65;;
7515;SDS011;3799;47.184;8.538;2024-02-04T03:46:14;9.38;;;4.78;;
7515;SDS011;3799;47.184;8.538;2024-02-04T03:48:44;8.95;;;4.00;;
7515;SDS011;3799;47.184;8.538;2024-02-04T03:51:26;8.18;;;4.53;;
7515;SDS011;3799;47.184;8.538;2024-02-04T03:54:03;8.98;;;3.50;;
7515;SDS011;3799;47.184;8.538;2024-02-04T03:56:31;9.07;;;4.80;;
7515;SDS011;3799;47.184;8.538;2024-02-04T03:59:01;8.13;;;4.00;;
7515;SDS011;3799;47.184;8.538;2024-02-04T04:01:33;7.22;;;3.97;;
7515;SDS011;3799;47.184;8.538;2024-02-04T04:04:05;8.43;;;3.30;;
7515;SDS011;3799;47.184;8.538;2024-02-04T04:06:33;10.77;;;5.88;;
7515;SDS011;3799;47.184;8.538;2024-02-04T04:09:01;12.23;;;5.78;;
7515;SDS011;3799;47.184;8.538;2024-02-04T04:11:29;10.65;;;3.85;;
7515;SDS011;3799;47.184;8.538;2024-02-04T04:13:57;10.00;;;4.78;;
7515;SDS011;3799;47.184;8.538;2024-02-04T04:16:24;8.70;;;3.90;;
7515;SDS011;3799;47.184;8.538;2024-02-04T04:18:56;9.57;;;4.78;;
7515;SDS011;3799;47.184;8.538;2024-02-04T04:21:25;8.50;;;4.22;;
7515;SDS011;3799;47.184;8.538;2024-02-04T04:23:53;8.82;;;4.57;;
7515;SDS011;3799;47.184;8.538;2024-02-04T04:29:51;7.53;;;4.30;;
7515;SDS011;3799;47.184;8.538;2024-02-04T04:32:23;11.20;;;5.35;;
7515;SDS011;3799;47.184;8.538;2024-02-04T04:34:51;8.77;;;4.50;;
7515;SDS011;3799;47.184;8.538;2024-02-04T04:37:32;12.00;;;5.60;;
7515;SDS011;3799;47.184;8.538;2024-02-04T04:40:18;9.30;;;4.68;;
7515;SDS011;3799;47.184;8.538;2024-02-04T04:43:11;8.90;;;4.88;;
7515;SDS011;3799;47.184;8.538;2024-02-04T04:45:42;10.80;;;4.03;;
7515;SDS011;3799;47.184;8.538;2024-02-04T04:48:38;9.88;;;3.92;;
7515;SDS011;3799;47.184;8.538;2024-02-04T04:51:17;10.32;;;4.70;;
7515;SDS011;3799;47.184;8.538;2024-02-04T04:54:12;7.88;;;4.13;;
7515;SDS011;3799;47.184;8.538;2024-02-04T04:56:52;7.22;;;3.92;;
7515;SDS011;3799;47.184;8.538;2024-02-04T04:59:46;9.40;;;4.72;;
7515;SDS011;3799;47.184;8.538;2024-02-04T05:02:14;9.38;;;4.50;;
7515;SDS011;3799;47.184;8.538;2024-02-04T05:04:44;10.90;;;4.00;;
7515;SDS011;3799;47.184;8.538;2024-02-04T05:07:12;9.10;;;4.60;;
7515;SDS011;3799;47.184;8.538;2024-02-04T05:09:42;9.10;;;4.38;;
7515;SDS011;3799;47.184;8.538;2024-02-04T05:12:13;10.02;;;5.13;;
7515;SDS011;3799;47.184;8.538;2024-02-04T05:14:44;9.05;;;5.13;;
7515;SDS011;3799;47.184;8.538;2024-02-04T05:17:11;8.63;;;4.18;;
7515;SDS011;3799;47.184;8.538;2024-02-04T05:19:47;12.27;;;5.07;;
7515;SDS011;3799;47.184;8.538;2024-02-04T05:22:15;9.70;;;3.97;;
7515;SDS011;3799;47.184;8.538;2024-02-04T05:24:45;10.68;;;4.57;;
7515;SDS011;3799;47.184;8.538;2024-02-04T05:27:13;11.32;;;4.00;;
7515;SDS011;3799;47.184;8.538;2024-02-04T05:29:50;10.75;;;4.60;;
7515;SDS011;3799;47.184;8.538;2024-02-04T05:32:20;8.77;;;4.07;;
7515;SDS011;3799;47.184;8.538;2024-02-04T05:34:47;8.13;;;4.03;;
7515;SDS011;3799;47.184;8.538;2024-02-04T05:37:15;8.52;;;4.20;;
7515;SDS011;3799;47.184;8.538;2024-02-04T05:39:45;11.30;;;4.57;;
7515;SDS011;3799;47.184;8.538;2024-02-04T05:42:18;8.55;;;3.92;;
7515;SDS011;3799;47.184;8.538;2024-02-04T05:44:45;13.52;;;5.55;;
7515;SDS011;3799;47.184;8.538;2024-02-04T05:47:13;12.60;;;4.50;;
7515;SDS011;3799;47.184;8.538;2024-02-04T05:49:44;12.82;;;5.40;;
7515;SDS011;3799;47.184;8.538;2024-02-04T05:52:11;13.05;;;5.03;;
7515;SDS011;3799;47.184;8.538;2024-02-04T05:54:39;9.40;;;3.97;;
7515;SDS011;3799;47.184;8.538;2024-02-04T05:57:07;11.70;;;5.05;;
7515;SDS011;3799;47.184;8.538;2024-02-04T05:59:34;9.73;;;5.28;;
7515;SDS011;3799;47.184;8.538;2024-02-04T06:02:15;11.13;;;4.47;;
7515;SDS011;3799;47.184;8.538;2024-02-04T06:04:48;10.05;;;4.75;;
7515;SDS011;3799;47.184;8.538;2024-02-04T06:07:18;8.88;;;3.78;;
7515;SDS011;3799;47.184;8.538;2024-02-04T06:09:45;10.48;;;4.43;;
7515;SDS011;3799;47.184;8.538;2024-02-04T06:12:16;15.48;;;6.05;;
7515;SDS011;3799;47.184;8.538;2024-02-04T06:14:43;10.98;;;4.68;;
7515;SDS011;3799;47.184;8.538;2024-02-04T06:17:13;12.40;;;6.25;;
7515;SDS011;3799;47.184;8.538;2024-02-04T06:19:52;12.27;;;5.35;;
7515;SDS011;3799;47.184;8.538;2024-02-04T06:22:25;12.35;;;4.78;;
7515;SDS011;3799;47.184;8.538;2024-02-04T06:25:03;14.57;;;5.85;;
7515;SDS011;3799;47.184;8.538;2024-02-04T06:27:34;11.43;;;5.22;;
7515;SDS011;3799;47.184;8.538;2024-02-04T06:30:07;11.00;;;5.32;;
7515;SDS011;3799;47.184;8.538;2024-02-04T06:32:37;11.57;;;6.03;;
7515;SDS011;3799;47.184;8.538;2024-02-04T06:35:07;13.15;;;5.55;;
7515;SDS011;3799;47.184;8.538;2024-02-04T06:37:38;10.45;;;5.28;;
7515;SDS011;3799;47.184;8.538;2024-02-04T06:40:07;12.63;;;4.90;;
7515;SDS011;3799;47.184;8.538;2024-02-04T06:42:38;12.82;;;4.53;;
7515;SDS011;3799;47.184;8.538;2024-02-04T06:45:13;10.13;;;5.20;;
7515;SDS011;3799;47.184;8.538;2024-02-04T06:47:43;13.63;;;5.72;;
7515;SDS011;3799;47.184;8.538;2024-02-04T06:50:12;11.70;;;5.97;;
7515;SDS011;3799;47.184;8.538;2024-02-04T06:52:41;8.75;;;4.68;;
7515;SDS011;3799;47.184;8.538;2024-02-04T06:55:09;9.98;;;4.53;;
7515;SDS011;3799;47.184;8.538;2024-02-04T06:57:40;13.43;;;5.40;;
7515;SDS011;3799;47.184;8.538;2024-02-04T07:00:16;11.45;;;5.03;;
7515;SDS011;3799;47.184;8.538;2024-02-04T07:02:45;13.23;;;5.82;;
7515;SDS011;3799;47.184;8.538;2024-02-04T07:05:13;14.95;;;5.72;;
7515;SDS011;3799;47.184;8.538;2024-02-04T07:07:43;9.73;;;4.50;;
7515;SDS011;3799;47.184;8.538;2024-02-04T07:10:22;11.82;;;5.18;;
7515;SDS011;3799;47.184;8.538;2024-02-04T07:12:54;9.32;;;4.80;;
7515;SDS011;3799;47.184;8.538;2024-02-04T07:15:25;12.10;;;5.88;;
7515;SDS011;3799;47.184;8.538;2024-02-04T07:18:04;11.20;;;4.15;;
7515;SDS011;3799;47.184;8.538;2024-02-04T07:20:37;7.05;;;3.63;;
7515;SDS011;3799;47.184;8.538;2024-02-04T07:23:13;7.80;;;3.30;;
7515;SDS011;3799;47.184;8.538;2024-02-04T07:25:47;6.95;;;3.20;;
7515;SDS011;3799;47.184;8.538;2024-02-04T07:28:24;7.40;;;3.78;;
7515;SDS011;3799;47.184;8.538;2024-02-04T07:30:56;5.93;;;3.28;;
7515;SDS011;3799;47.184;8.538;2024-02-04T07:33:27;7.75;;;3.42;;
7515;SDS011;3799;47.184;8.538;2024-02-04T07:36:01;5.60;;;3.42;;
7515;SDS011;3799;47.184;8.538;2024-02-04T07:38:31;6.20;;;3.80;;
7515;SDS011;3799;47.184;8.538;2024-02-04T07:41:05;7.13;;;3.67;;
7515;SDS011;3799;47.184;8.538;2024-02-04T07:43:39;5.57;;;2.85;;
7515;SDS011;3799;47.184;8.538;2024-02-04T07:46:12;7.28;;;3.40;;
7515;SDS011;3799;47.184;8.538;2024-02-04T07:48:52;5.28;;;3.05;;
7515;SDS011;3799;47.184;8.538;2024-02-04T07:51:25;5.18;;;2.58;;
7515;SDS011;3799;47.184;8.538;2024-02-04T07:54:00;5.25;;;2.00;;
7515;SDS011;3799;47.184;8.538;2024-02-04T07:56:36;7.03;;;2.63;;
7515;SDS011;3799;47.184;8.538;2024-02-04T07:59:03;5.75;;;2.53;;
7515;SDS011;3799;47.184;8.538;2024-02-04T08:01:31;4.63;;;2.60;;
7515;SDS011;3799;47.184;8.538;2024-02-04T08:03:58;7.38;;;2.80;;
7515;SDS011;3799;47.184;8.538;2024-02-04T08:06:27;4.93;;;2.72;;
7515;SDS011;3799;47.184;8.538;2024-02-04T08:08:55;7.18;;;2.70;;
7515;SDS011;3799;47.184;8.538;2024-02-04T08:11:27;5.95;;;2.38;;
7515;SDS011;3799;47.184;8.538;2024-02-04T08:14:06;5.97;;;2.80;;
7515;SDS011;3799;47.184;8.538;2024-02-04T08:16:34;7.05;;;3.35;;
7515;SDS011;3799;47.184;8.538;2024-02-04T08:19:11;6.18;;;2.90;;
7515;SDS011;3799;47.184;8.538;2024-02-04T08:21:38;6.63;;;3.67;;
7515;SDS011;3799;47.184;8.538;2024-02-04T08:24:12;9.23;;;3.63;;
7515;SDS011;3799;47.184;8.538;2024-02-04T08:26:46;5.90;;;3.05;;
7515;SDS011;3799;47.184;8.538;2024-02-04T08:29:24;6.30;;;2.53;;
7515;SDS011;3799;47.184;8.538;2024-02-04T08:31:55;9.77;;;3.17;;
7515;SDS011;3799;47.184;8.538;2024-02-04T08:34:23;8.73;;;3.95;;
7515;SDS011;3799;47.184;8.538;2024-02-04T08:36:54;9.02;;;3.45;;
7515;SDS011;3799;47.184;8.538;2024-02-04T08:39:30;6.90;;;3.83;;
7515;SDS011;3799;47.184;8.538;2024-02-04T08:42:10;6.70;;;3.08;;
7515;SDS011;3799;47.184;8.538;2024-02-04T08:44:38;7.95;;;3.85;;
7515;SDS011;3799;47.184;8.538;2024-02-04T08:47:07;11.30;;;3.72;;
7515;SDS011;3799;47.184;8.538;2024-02-04T08:49:39;9.93;;;4.85;;
7515;SDS011;3799;47.184;8.538;2024-02-04T08:52:08;9.13;;;4.18;;
7515;SDS011;3799;47.184;8.538;2024-02-04T08:54:40;10.15;;;3.55;;
7515;SDS011;3799;47.184;8.538;2024-02-04T08:57:17;7.05;;;4.03;;
7515;SDS011;3799;47.184;8.538;2024-02-04T09:00:01;7.07;;;3.70;;
7515;SDS011;3799;47.184;8.538;2024-02-04T09:02:35;11.10;;;4.65;;
7515;SDS011;3799;47.184;8.538;2024-02-04T09:05:06;8.20;;;4.43;;
7515;SDS011;3799;47.184;8.538;2024-02-04T09:07:36;10.35;;;4.05;;
7515;SDS011;3799;47.184;8.538;2024-02-04T09:10:07;9.32;;;3.42;;
7515;SDS011;3799;47.184;8.538;2024-02-04T09:12:36;8.55;;;3.30;;
7515;SDS011;3799;47.184;8.538;2024-02-04T09:15:05;11.55;;;3.72;;
7515;SDS011;3799;47.184;8.538;2024-02-04T09:17:33;10.00;;;4.53;;
7515;SDS011;3799;47.184;8.538;2024-02-04T09:22:31;8.45;;;4.05;;
7515;SDS011;3799;47.184;8.538;2024-02-04T09:24:59;10.52;;;5.00;;
7515;SDS011;3799;47.184;8.538;2024-02-04T09:27:29;10.55;;;4.80;;
7515;SDS011;3799;47.184;8.538;2024-02-04T09:29:57;11.95;;;4.85;;
7515;SDS011;3799;47.184;8.538;2024-02-04T09:32:25;11.20;;;4.72;;
7515;SDS011;3799;47.184;8.538;2024-02-04T09:34:57;10.20;;;4.82;;
7515;SDS011;3799;47.184;8.538;2024-02-04T09:37:26;13.98;;;6.45;;
7515;SDS011;3799;47.184;8.538;2024-02-04T09:39:54;11.98;;;4.95;;
7515;SDS011;3799;47.184;8.538;2024-02-04T09:42:23;12.50;;;4.85;;
7515;SDS011;3799;47.184;8.538;2024-02-04T09:44:54;10.82;;;4.72;;
7515;SDS011;3799;47.184;8.538;2024-02-04T09:47:22;12.93;;;6.43;;
7515;SDS011;3799;47.184;8.538;2024-02-04T09:49:50;11.43;;;4.93;;
7515;SDS011;3799;47.184;8.538;2024-02-04T09:52:32;13.10;;;5.70;;
7515;SDS011;3799;47.184;8.538;2024-02-04T09:55:03;10.13;;;4.72;;
7515;SDS011;3799;47.184;8.538;2024-02-04T09:57:34;10.07;;;5.43;;
7515;SDS011;3799;47.184;8.538;2024-02-04T10:00:03;10.43;;;5.43;;
7515;SDS011;3799;47.184;8.538;2024-02-04T10:02:35;17.25;;;5.90;;
7515;SDS011;3799;47.184;8.538;2024-02-04T10:05:04;12.70;;;5.30;;
7515;SDS011;3799;47.184;8.538;2024-02-04T10:07:32;12.75;;;6.00;;
7515;SDS011;3799;47.184;8.538;2024-02-04T10:10:00;16.10;;;6.20;;
7515;SDS011;3799;47.184;8.538;2024-02-04T10:15:09;11.90;;;5.22;;
7515;SDS011;3799;47.184;8.538;2024-02-04T10:17:42;10.57;;;5.53;;
7515;SDS011;3799;47.184;8.538;2024-02-04T10:20:14;13.40;;;6.28;;
7515;SDS011;3799;47.184;8.538;2024-02-04T10:23:10;11.85;;;6.25;;
7515;SDS011;3799;47.184;8.538;2024-02-04T10:25:41;17.85;;;5.20;;
7515;SDS011;3799;47.184;8.538;2024-02-04T10:28:11;8.38;;;4.68;;
7515;SDS011;3799;47.184;8.538;2024-02-04T10:30:41;12.25;;;5.50;;
7515;SDS011;3799;47.184;8.538;2024-02-04T10:33:09;11.38;;;6.07;;
7515;SDS011;3799;47.184;8.538;2024-02-04T10:35:54;11.82;;;5.57;;
7515;SDS011;3799;47.184;8.538;2024-02-04T10:38:25;12.65;;;5.07;;
7515;SDS011;3799;47.184;8.538;2024-02-04T10:40:54;12.70;;;5.72;;
7515;SDS011;3799;47.184;8.538;2024-02-04T10:43:31;14.00;;;5.78;;
7515;SDS011;3799;47.184;8.538;2024-02-04T10:46:04;16.10;;;6.60;;
7515;SDS011;3799;47.184;8.538;2024-02-04T10:48:57;13.13;;;6.75;;
7515;SDS011;3799;47.184;8.538;2024-02-04T10:51:32;12.65;;;5.97;;
7515;SDS011;3799;47.184;8.538;2024-02-04T10:54:02;12.65;;;5.55;;
7515;SDS011;3799;47.184;8.538;2024-02-04T10:56:36;15.25;;;5.57;;
7515;SDS011;3799;47.184;8.538;2024-02-04T10:59:07;11.20;;;5.95;;
7515;SDS011;3799;47.184;8.538;2024-02-04T11:01:36;9.48;;;4.80;;
7515;SDS011;3799;47.184;8.538;2024-02-04T11:04:05;9.82;;;5.20;;
7515;SDS011;3799;47.184;8.538;2024-02-04T11:06:42;11.43;;;5.05;;
7515;SDS011;3799;47.184;8.538;2024-02-04T11:09:11;12.15;;;5.60;;
7515;SDS011;3799;47.184;8.538;2024-02-04T11:11:41;11.93;;;5.22;;
7515;SDS011;3799;47.184;8.538;2024-02-04T11:14:11;10.50;;;5.28;;
7515;SDS011;3799;47.184;8.538;2024-02-04T11:25:15;12.50;;;4.90;;
7515;SDS011;3799;47.184;8.538;2024-02-04T11:27:54;10.57;;;4.30;;
7515;SDS011;3799;47.184;8.538;2024-02-04T11:30:23;14.38;;;6.07;;
7515;SDS011;3799;47.184;8.538;2024-02-04T11:32:51;12.50;;;4.72;;
7515;SDS011;3799;47.184;8.538;2024-02-04T11:35:22;12.38;;;4.90;;
7515;SDS011;3799;47.184;8.538;2024-02-04T11:37:53;10.25;;;5.07;;
7515;SDS011;3799;47.184;8.538;2024-02-04T11:40:30;10.55;;;5.13;;
7515;SDS011;3799;47.184;8.538;2024-02-04T11:43:10;14.00;;;4.28;;
7515;SDS011;3799;47.184;8.538;2024-02-04T11:45:41;17.33;;;6.15;;
7515;SDS011;3799;47.184;8.538;2024-02-04T11:48:13;15.90;;;5.80;;
7515;SDS011;3799;47.184;8.538;2024-02-04T11:50:42;12.63;;;5.80;;
7515;SDS011;3799;47.184;8.538;2024-02-04T11:53:11;10.68;;;5.82;;
7515;SDS011;3799;47.184;8.538;2024-02-04T11:55:40;11.95;;;4.57;;
7515;SDS011;3799;47.184;8.538;2024-02-04T11:58:12;12.55;;;5.10;;
7515;SDS011;3799;47.184;8.538;2024-02-04T12:00:57;12.63;;;5.75;;
7515;SDS011;3799;47.184;8.538;2024-02-04T12:03:37;11.15;;;5.03;;
7515;SDS011;3799;47.184;8.538;2024-02-04T12:06:09;12.20;;;5.25;;
7515;SDS011;3799;47.184;8.538;2024-02-04T12:08:42;11.38;;;5.63;;
7515;SDS011;3799;47.184;8.538;2024-02-04T12:11:25;14.13;;;6.05;;
7515;SDS011;3799;47.184;8.538;2024-02-04T12:14:04;13.93;;;5.68;;
7515;SDS011;3799;47.184;8.538;2024-02-04T12:16:39;11.35;;;4.93;;
7515;SDS011;3799;47.184;8.538;2024-02-04T12:19:23;11.38;;;4.32;;
7515;SDS011;3799;47.184;8.538;2024-02-04T12:22:25;16.48;;;5.32;;
7515;SDS011;3799;47.184;8.538;2024-02-04T12:24:54;10.73;;;4.55;;
7515;SDS011;3799;47.184;8.538;2024-02-04T12:27:43;15.05;;;6.05;;
7515;SDS011;3799;47.184;8.538;2024-02-04T12:30:19;11.20;;;5.22;;
7515;SDS011;3799;47.184;8.538;2024-02-04T12:33:02;12.50;;;5.20;;
7515;SDS011;3799;47.184;8.538;2024-02-04T12:35:36;10.25;;;4.65;;
7515;SDS011;3799;47.184;8.538;2024-02-04T12:38:08;9.88;;;5.40;;
7515;SDS011;3799;47.184;8.538;2024-02-04T12:40:46;9.35;;;4.50;;
7515;SDS011;3799;47.184;8.538;2024-02-04T12:43:14;10.88;;;5.22;;
7515;SDS011;3799;47.184;8.538;2024-02-04T12:45:42;12.10;;;5.95;;
7515;SDS011;3799;47.184;8.538;2024-02-04T12:48:15;12.98;;;4.35;;
7515;SDS011;3799;47.184;8.538;2024-02-04T12:50:50;9.70;;;4.80;;
7515;SDS011;3799;47.184;8.538;2024-02-04T12:53:29;13.52;;;4.93;;
7515;SDS011;3799;47.184;8.538;2024-02-04T12:56:05;13.95;;;5.60;;
7515;SDS011;3799;47.184;8.538;2024-02-04T12:58:41;11.27;;;5.10;;
7515;SDS011;3799;47.184;8.538;2024-02-04T13:01:13;12.55;;;5.78;;
7515;SDS011;3799;47.184;8.538;2024-02-04T13:03:48;10.98;;;5.32;;
7515;SDS011;3799;47.184;8.538;2024-02-04T13:06:28;10.38;;;5.65;;
7515;SDS011;3799;47.184;8.538;2024-02-04T13:08:56;12.60;;;5.95;;
7515;SDS011;3799;47.184;8.538;2024-02-04T13:11:26;9.75;;;4.60;;
7515;SDS011;3799;47.184;8.538;2024-02-04T13:14:03;8.93;;;4.72;;
7515;SDS011;3799;47.184;8.538;2024-02-04T13:16:34;12.02;;;5.30;;
7515;SDS011;3799;47.184;8.538;2024-02-04T13:19:04;10.18;;;5.10;;
7515;SDS011;3799;47.184;8.538;2024-02-04T13:21:37;13.82;;;5.30;;
7515;SDS011;3799;47.184;8.538;2024-02-04T13:24:11;11.18;;;4.82;;
7515;SDS011;3799;47.184;8.538;2024-02-04T13:26:40;12.05;;;5.00;;
7515;SDS011;3799;47.184;8.538;2024-02-04T13:29:12;11.00;;;5.30;;
7515;SDS011;3799;47.184;8.538;2024-02-04T13:31:41;9.88;;;5.32;;
7515;SDS011;3799;47.184;8.538;2024-02-04T13:34:10;12.55;;;5.70;;
7515;SDS011;3799;47.184;8.538;2024-02-04T13:36:46;9.25;;;4.50;;
7515;SDS011;3799;47.184;8.538;2024-02-04T13:39:14;11.27;;;4.95;;
7515;SDS011;3799;47.184;8.538;2024-02-04T13:41:45;8.52;;;4.07;;
7515;SDS011;3799;47.184;8.538;2024-02-04T13:44:17;13.40;;;5.38;;
7515;SDS011;3799;47.184;8.538;2024-02-04T13:46:50;10.20;;;4.75;;
7515;SDS011;3799;47.184;8.538;2024-02-04T13:49:22;9.77;;;5.53;;
7515;SDS011;3799;47.184;8.538;2024-02-04T13:51:51;13.27;;;5.15;;
7515;SDS011;3799;47.184;8.538;2024-02-04T13:54:21;9.88;;;5.00;;
7515;SDS011;3799;47.184;8.538;2024-02-04T13:56:48;10.32;;;5.20;;
7515;SDS011;3799;47.184;8.538;2024-02-04T13:59:17;10.40;;;5.20;;
7515;SDS011;3799;47.184;8.538;2024-02-04T14:02:18;12.63;;;5.63;;
7515;SDS011;3799;47.184;8.538;2024-02-04T14:04:46;12.10;;;5.13;;
7515;SDS011;3799;47.184;8.538;2024-02-04T14:07:25;9.45;;;4.85;;
7515;SDS011;3799;47.184;8.538;2024-02-04T14:09:57;11.50;;;4.82;;
7515;SDS011;3799;47.184;8.538;2024-02-04T14:12:30;9.52;;;5.03;;
7515;SDS011;3799;47.184;8.538;2024-02-04T14:15:00;13.30;;;5.10;;
7515;SDS011;3799;47.184;8.538;2024-02-04T14:17:28;10.60;;;5.25;;
7515;SDS011;3799;47.184;8.538;2024-02-04T14:19:58;12.25;;;5.45;;
7515;SDS011;3799;47.184;8.538;2024-02-04T14:22:44;13.13;;;6.05;;
7515;SDS011;3799;47.184;8.538;2024-02-04T14:25:15;11.85;;;5.45;;
7515;SDS011;3799;47.184;8.538;2024-02-04T14:27:46;11.95;;;5.03;;
7515;SDS011;3799;47.184;8.538;2024-02-04T14:30:14;11.48;;;5.18;;
7515;SDS011;3799;47.184;8.538;2024-02-04T14:32:49;8.13;;;4.80;;
7515;SDS011;3799;47.184;8.538;2024-02-04T14:35:20;10.70;;;5.15;;
7515;SDS011;3799;47.184;8.538;2024-02-04T14:37:48;11.95;;;4.82;;
7515;SDS011;3799;47.184;8.538;2024-02-04T14:40:17;11.18;;;5.18;;
7515;SDS011;3799;47.184;8.538;2024-02-04T14:42:48;12.95;;;5.55;;
7515;SDS011;3799;47.184;8.538;2024-02-04T14:45:16;12.13;;;6.15;;
7515;SDS011;3799;47.184;8.538;2024-02-04T14:47:45;11.23;;;5.25;;
7515;SDS011;3799;47.184;8.538;2024-02-04T14:50:13;11.00;;;5.10;;
7515;SDS011;3799;47.184;8.538;2024-02-04T14:52:44;12.82;;;6.00;;
7515;SDS011;3799;47.184;8.538;2024-02-04T14:55:15;13.65;;;5.82;;
7515;SDS011;3799;47.184;8.538;2024-02-04T14:57:47;12.52;;;5.88;;
7515;SDS011;3799;47.184;8.538;2024-02-04T15:00:15;12.43;;;5.85;;
7515;SDS011;3799;47.184;8.538;2024-02-04T15:02:56;10.20;;;5.25;;
7515;SDS011;3799;47.184;8.538;2024-02-04T15:05:25;11.57;;;6.07;;
7515;SDS011;3799;47.184;8.538;2024-02-04T15:08:08;11.45;;;5.30;;
7515;SDS011;3799;47.184;8.538;2024-02-04T15:10:56;10.65;;;5.22;;
7515;SDS011;3799;47.184;8.538;2024-02-04T15:13:24;11.68;;;4.35;;
7515;SDS011;3799;47.184;8.538;2024-02-04T15:15:55;11.20;;;5.85;;
7515;SDS011;3799;47.184;8.538;2024-02-04T15:18:27;10.23;;;5.05;;
7515;SDS011;3799;47.184;8.538;2024-02-04T15:21:07;8.52;;;4.78;;
7515;SDS011;3799;47.184;8.538;2024-02-04T15:23:37;12.27;;;5.47;;
7515;SDS011;3799;47.184;8.538;2024-02-04T15:26:11;11.00;;;5.63;;
7515;SDS011;3799;47.184;8.538;2024-02-04T15:28:44;9.73;;;4.22;;
7515;SDS011;3799;47.184;8.538;2024-02-04T15:31:17;9.88;;;5.22;;
7515;SDS011;3799;47.184;8.538;2024-02-04T15:33:49;14.45;;;5.55;;
7515;SDS011;3799;47.184;8.538;2024-02-04T15:36:59;13.60;;;6.22;;
7515;SDS011;3799;47.184;8.538;2024-02-04T15:39:29;9.85;;;5.15;;
7515;SDS011;3799;47.184;8.538;2024-02-04T15:42:08;9.27;;;4.78;;
7515;SDS011;3799;47.184;8.538;2024-02-04T15:44:42;10.05;;;4.80;;
7515;SDS011;3799;47.184;8.538;2024-02-04T15:47:23;10.38;;;5.65;;
7515;SDS011;3799;47.184;8.538;2024-02-04T15:50:01;11.85;;;3.90;;
7515;SDS011;3799;47.184;8.538;2024-02-04T15:52:30;9.07;;;3.97;;
7515;SDS011;3799;47.184;8.538;2024-02-04T15:55:00;12.18;;;5.22;;
7515;SDS011;3799;47.184;8.538;2024-02-04T15:57:33;12.55;;;5.55;;
7515;SDS011;3799;47.184;8.538;2024-02-04T16:00:06;10.57;;;5.43;;
7515;SDS011;3799;47.184;8.538;2024-02-04T16:02:45;11.85;;;4.72;;
7515;SDS011;3799;47.184;8.538;2024-02-04T16:05:20;13.73;;;6.10;;